sensor_id;sensor_type;location;lat;lon;timestamp;pressure;altitude;pressure_sealevel;temperature;humidity
45403;BME280;47427;51.976;5.326;2023-08-08T00:00:02;101366.88;;;14.98;100.00
45403;BME280;47427;51.976;5.326;2023-08-08T00:03:06;101364.28;;;15.01;100.00
45403;BME280;47427;51.976;5.326;2023-08-08T00:06:09;101355.50;;;15.02;100.00
45403;BME280;47427;51.976;5.326;2023-08-08T00:09:12;101358.28;;;15.10;100.00
45403;BME280;47427;51.976;5.326;2023-08-08T00:12:14;101354.03;;;15.20;100.00
45403;BME280;47427;51.976;5.326;2023-08-08T00:15:16;101345.22;;;15.21;100.00
45403;BME280;47427;51.976;5.326;2023-08-08T00:18:19;101350.63;;;15.28;100.00
45403;BME280;47427;51.976;5.326;2023-08-08T00:21:22;101342.72;;;15.30;100.00
45403;BME280;47427;51.976;5.326;2023-08-08T00:24:24;101335.59;;;15.26;100.00
45403;BME280;47427;51.976;5.326;2023-08-08T00:27:26;101341.84;;;15.29;100.00
45403;BME280;47427;51.976;5.326;2023-08-08T00:30:29;101354.19;;;15.30;100.00
45403;BME280;47427;51.976;5.326;2023-08-08T00:33:32;101338.31;;;15.30;100.00
45403;BME280;47427;51.976;5.326;2023-08-08T00:36:34;101331.31;;;15.32;100.00
45403;BME280;47427;51.976;5.326;2023-08-08T00:39:36;101333.13;;;15.38;100.00
45403;BME280;47427;51.976;5.326;2023-08-08T00:42:39;101339.34;;;15.42;100.00
45403;BME280;47427;51.976;5.326;2023-08-08T00:45:43;101335.00;;;15.47;100.00
45403;BME280;47427;51.976;5.326;2023-08-08T00:48:47;101341.22;;;15.49;100.00
45403;BME280;47427;51.976;5.326;2023-08-08T00:51:49;101335.00;;;15.45;100.00
45403;BME280;47427;51.976;5.326;2023-08-08T00:54:52;101327.03;;;15.44;100.00
45403;BME280;47427;51.976;5.326;2023-08-08T00:57:59;101321.72;;;15.41;100.00
45403;BME280;47427;51.976;5.326;2023-08-08T01:01:02;101325.13;;;15.32;100.00
45403;BME280;47427;51.976;5.326;2023-08-08T01:04:04;101330.19;;;15.18;100.00
45403;BME280;47427;51.976;5.326;2023-08-08T01:07:29;101339.06;;;15.22;100.00
45403;BME280;47427;51.976;5.326;2023-08-08T01:10:39;101322.38;;;15.26;100.00
45403;BME280;47427;51.976;5.326;2023-08-08T01:13:43;101329.56;;;15.34;100.00
45403;BME280;47427;51.976;5.326;2023-08-08T01:16:45;101314.56;;;15.32;100.00
45403;BME280;47427;51.976;5.326;2023-08-08T01:19:48;101333.75;;;15.20;100.00
45403;BME280;47427;51.976;5.326;2023-08-08T01:26:05;101327.16;;;14.92;100.00
45403;BME280;47427;51.976;5.326;2023-08-08T01:29:07;101322.72;;;14.89;100.00
45403;BME280;47427;51.976;5.326;2023-08-08T01:32:10;101331.72;;;15.02;100.00
45403;BME280;47427;51.976;5.326;2023-08-08T01:35:13;101340.69;;;15.13;100.00
45403;BME280;47427;51.976;5.326;2023-08-08T01:38:48;101339.91;;;15.19;100.00
45403;BME280;47427;51.976;5.326;2023-08-08T01:41:54;101325.69;;;15.11;100.00
45403;BME280;47427;51.976;5.326;2023-08-08T01:44:58;101326.53;;;15.07;100.00
45403;BME280;47427;51.976;5.326;2023-08-08T01:48:10;101329.78;;;14.90;100.00
45403;BME280;47427;51.976;5.326;2023-08-08T01:51:12;101326.75;;;14.67;100.00
45403;BME280;47427;51.976;5.326;2023-08-08T01:54:14;101311.50;;;14.52;100.00
45403;BME280;47427;51.976;5.326;2023-08-08T01:57:17;101320.13;;;14.42;100.00
45403;BME280;47427;51.976;5.326;2023-08-08T02:00:20;101315.56;;;14.35;100.00
45403;BME280;47427;51.976;5.326;2023-08-08T02:03:22;101318.06;;;14.26;100.00
45403;BME280;47427;51.976;5.326;2023-08-08T02:06:23;101316.50;;;14.37;100.00
45403;BME280;47427;51.976;5.326;2023-08-08T02:09:27;101314.09;;;14.49;100.00
45403;BME280;47427;51.976;5.326;2023-08-08T02:12:30;101317.84;;;14.62;100.00
45403;BME280;47427;51.976;5.326;2023-08-08T02:15:33;101309.81;;;14.55;100.00
45403;BME280;47427;51.976;5.326;2023-08-08T02:18:36;101301.81;;;14.51;100.00
45403;BME280;47427;51.976;5.326;2023-08-08T02:21:43;101301.09;;;14.59;100.00
45403;BME280;47427;51.976;5.326;2023-08-08T02:24:46;101311.75;;;14.65;100.00
45403;BME280;47427;51.976;5.326;2023-08-08T02:27:48;101305.53;;;14.63;100.00
45403;BME280;47427;51.976;5.326;2023-08-08T02:30:52;101299.31;;;14.59;100.00
45403;BME280;47427;51.976;5.326;2023-08-08T02:33:55;101293.16;;;14.59;100.00
45403;BME280;47427;51.976;5.326;2023-08-08T02:36:59;101297.59;;;14.61;100.00
45403;BME280;47427;51.976;5.326;2023-08-08T02:40:02;101294.75;;;14.52;100.00
45403;BME280;47427;51.976;5.326;2023-08-08T02:43:05;101289.25;;;14.40;100.00
45403;BME280;47427;51.976;5.326;2023-08-08T02:46:08;101287.59;;;14.45;100.00
45403;BME280;47427;51.976;5.326;2023-08-08T02:49:11;101291.91;;;14.40;100.00
45403;BME280;47427;51.976;5.326;2023-08-08T02:52:15;101280.19;;;14.24;100.00
45403;BME280;47427;51.976;5.326;2023-08-08T02:55:16;101284.38;;;14.13;100.00
45403;BME280;47427;51.976;5.326;2023-08-08T02:58:23;101283.47;;;14.11;100.00
45403;BME280;47427;51.976;5.326;2023-08-08T03:01:27;101286.91;;;14.06;100.00
45403;BME280;47427;51.976;5.326;2023-08-08T03:04:30;101278.00;;;14.01;100.00
45403;BME280;47427;51.976;5.326;2023-08-08T03:07:32;101272.66;;;13.97;100.00
45403;BME280;47427;51.976;5.326;2023-08-08T03:10:35;101278.59;;;13.86;100.00
45403;BME280;47427;51.976;5.326;2023-08-08T03:13:39;101285.59;;;13.83;100.00
45403;BME280;47427;51.976;5.326;2023-08-08T03:16:43;101275.81;;;13.79;100.00
45403;BME280;47427;51.976;5.326;2023-08-08T03:19:46;101273.22;;;13.82;100.00
45403;BME280;47427;51.976;5.326;2023-08-08T03:22:50;101274.06;;;13.79;100.00
45403;BME280;47427;51.976;5.326;2023-08-08T03:25:53;101267.72;;;13.70;100.00
45403;BME280;47427;51.976;5.326;2023-08-08T03:28:55;101276.44;;;13.65;100.00
45403;BME280;47427;51.976;5.326;2023-08-08T03:32:05;101280.72;;;13.60;100.00
45403;BME280;47427;51.976;5.326;2023-08-08T03:35:08;101284.28;;;13.62;100.00
45403;BME280;47427;51.976;5.326;2023-08-08T03:38:13;101284.34;;;13.65;100.00
45403;BME280;47427;51.976;5.326;2023-08-08T03:41:16;101286.97;;;13.65;100.00
45403;BME280;47427;51.976;5.326;2023-08-08T03:44:18;101275.63;;;13.70;100.00
45403;BME280;47427;51.976;5.326;2023-08-08T03:47:19;101274.28;;;13.90;100.00
45403;BME280;47427;51.976;5.326;2023-08-08T03:50:22;101268.38;;;14.03;100.00
45403;BME280;47427;51.976;5.326;2023-08-08T03:53:25;101273.84;;;14.14;100.00
45403;BME280;47427;51.976;5.326;2023-08-08T03:56:27;101278.44;;;14.24;100.00
45403;BME280;47427;51.976;5.326;2023-08-08T03:59:30;101253.63;;;14.15;100.00
45403;BME280;47427;51.976;5.326;2023-08-08T04:02:33;101267.00;;;14.25;100.00
45403;BME280;47427;51.976;5.326;2023-08-08T04:05:36;101268.66;;;14.19;100.00
45403;BME280;47427;51.976;5.326;2023-08-08T04:08:38;101261.59;;;14.18;100.00
45403;BME280;47427;51.976;5.326;2023-08-08T04:11:43;101256.44;;;14.25;100.00
45403;BME280;47427;51.976;5.326;2023-08-08T04:14:46;101258.34;;;14.32;100.00
45403;BME280;47427;51.976;5.326;2023-08-08T04:17:48;101257.59;;;14.40;100.00
45403;BME280;47427;51.976;5.326;2023-08-08T04:20:50;101257.63;;;14.43;100.00
45403;BME280;47427;51.976;5.326;2023-08-08T04:23:53;101260.41;;;14.50;100.00
45403;BME280;47427;51.976;5.326;2023-08-08T04:26:56;101253.41;;;14.52;100.00
45403;BME280;47427;51.976;5.326;2023-08-08T04:29:58;101256.78;;;14.45;100.00
45403;BME280;47427;51.976;5.326;2023-08-08T04:33:01;101252.34;;;14.41;100.00
45403;BME280;47427;51.976;5.326;2023-08-08T04:36:04;101254.63;;;14.21;100.00
45403;BME280;47427;51.976;5.326;2023-08-08T04:39:07;101257.03;;;14.09;100.00
45403;BME280;47427;51.976;5.326;2023-08-08T04:42:10;101256.81;;;13.97;100.00
45403;BME280;47427;51.976;5.326;2023-08-08T04:45:13;101254.19;;;13.97;100.00
45403;BME280;47427;51.976;5.326;2023-08-08T04:48:16;101259.44;;;13.95;100.00
45403;BME280;47427;51.976;5.326;2023-08-08T04:51:19;101260.34;;;13.97;100.00
45403;BME280;47427;51.976;5.326;2023-08-08T04:54:22;101255.25;;;14.06;100.00
45403;BME280;47427;51.976;5.326;2023-08-08T04:57:25;101250.41;;;14.31;100.00
45403;BME280;47427;51.976;5.326;2023-08-08T05:00:26;101260.56;;;14.57;100.00
45403;BME280;47427;51.976;5.326;2023-08-08T05:03:30;101254.63;;;14.71;100.00
45403;BME280;47427;51.976;5.326;2023-08-08T05:06:33;101252.13;;;14.81;100.00
45403;BME280;47427;51.976;5.326;2023-08-08T05:09:35;101248.63;;;14.83;100.00
45403;BME280;47427;51.976;5.326;2023-08-08T05:12:37;101252.31;;;14.91;100.00
45403;BME280;47427;51.976;5.326;2023-08-08T05:15:39;101253.38;;;15.06;100.00
45403;BME280;47427;51.976;5.326;2023-08-08T05:18:42;101257.84;;;15.10;100.00
45403;BME280;47427;51.976;5.326;2023-08-08T05:21:47;101263.16;;;15.13;100.00
45403;BME280;47427;51.976;5.326;2023-08-08T05:24:49;101267.69;;;15.22;100.00
45403;BME280;47427;51.976;5.326;2023-08-08T05:27:52;101267.81;;;15.29;100.00
45403;BME280;47427;51.976;5.326;2023-08-08T05:30:55;101267.00;;;15.35;100.00
45403;BME280;47427;51.976;5.326;2023-08-08T05:33:59;101262.59;;;15.35;100.00
45403;BME280;47427;51.976;5.326;2023-08-08T05:37:00;101266.06;;;15.31;100.00
45403;BME280;47427;51.976;5.326;2023-08-08T05:40:04;101261.63;;;15.27;100.00
45403;BME280;47427;51.976;5.326;2023-08-08T05:43:08;101259.06;;;15.35;100.00
45403;BME280;47427;51.976;5.326;2023-08-08T05:46:11;101263.72;;;15.53;100.00
45403;BME280;47427;51.976;5.326;2023-08-08T05:49:13;101274.53;;;15.71;100.00
45403;BME280;47427;51.976;5.326;2023-08-08T05:52:16;101277.31;;;15.80;100.00
45403;BME280;47427;51.976;5.326;2023-08-08T05:55:18;101264.91;;;15.75;100.00
45403;BME280;47427;51.976;5.326;2023-08-08T05:58:21;101274.53;;;15.71;100.00
45403;BME280;47427;51.976;5.326;2023-08-08T06:01:23;101272.84;;;15.76;100.00
45403;BME280;47427;51.976;5.326;2023-08-08T06:04:26;101277.97;;;15.66;100.00
45403;BME280;47427;51.976;5.326;2023-08-08T06:07:29;101283.94;;;15.51;100.00
45403;BME280;47427;51.976;5.326;2023-08-08T06:10:32;101280.59;;;15.64;100.00
45403;BME280;47427;51.976;5.326;2023-08-08T06:13:34;101283.44;;;15.78;100.00
45403;BME280;47427;51.976;5.326;2023-08-08T06:16:36;101291.47;;;15.87;100.00
45403;BME280;47427;51.976;5.326;2023-08-08T06:19:39;101295.84;;;15.84;100.00
45403;BME280;47427;51.976;5.326;2023-08-08T06:22:42;101295.97;;;15.93;100.00
45403;BME280;47427;51.976;5.326;2023-08-08T06:25:45;101296.22;;;16.17;100.00
45403;BME280;47427;51.976;5.326;2023-08-08T06:28:46;101296.34;;;16.28;100.00
45403;BME280;47427;51.976;5.326;2023-08-08T06:31:50;101300.72;;;16.26;100.00
45403;BME280;47427;51.976;5.326;2023-08-08T06:34:53;101303.34;;;16.24;100.00
45403;BME280;47427;51.976;5.326;2023-08-08T06:37:56;101303.34;;;16.24;100.00
45403;BME280;47427;51.976;5.326;2023-08-08T06:40:58;101300.78;;;16.32;100.00
45403;BME280;47427;51.976;5.326;2023-08-08T06:44:01;101305.28;;;16.42;100.00
45403;BME280;47427;51.976;5.326;2023-08-08T06:47:03;101302.72;;;16.53;100.00
45403;BME280;47427;51.976;5.326;2023-08-08T06:50:07;101304.56;;;16.60;100.00
45403;BME280;47427;51.976;5.326;2023-08-08T06:53:09;101307.28;;;16.68;100.00
45403;BME280;47427;51.976;5.326;2023-08-08T06:56:12;101297.69;;;16.81;100.00
45403;BME280;47427;51.976;5.326;2023-08-08T06:59:15;101306.56;;;16.83;100.00
45403;BME280;47427;51.976;5.326;2023-08-08T07:02:19;101304.91;;;16.94;100.00
45403;BME280;47427;51.976;5.326;2023-08-08T07:05:22;101309.44;;;17.12;100.00
45403;BME280;47427;51.976;5.326;2023-08-08T07:08:28;101304.28;;;17.38;100.00
45403;BME280;47427;51.976;5.326;2023-08-08T07:11:31;101305.22;;;17.51;99.78
45403;BME280;47427;51.976;5.326;2023-08-08T07:14:34;101300.88;;;17.64;99.01
45403;BME280;47427;51.976;5.326;2023-08-08T07:17:36;101309.06;;;18.33;96.20
45403;BME280;47427;51.976;5.326;2023-08-08T07:20:39;101301.78;;;19.91;84.05
45403;BME280;47427;51.976;5.326;2023-08-08T07:23:42;101310.78;;;20.98;75.03
45403;BME280;47427;51.976;5.326;2023-08-08T07:26:45;101318.25;;;22.25;68.53
45403;BME280;47427;51.976;5.326;2023-08-08T07:29:47;101345.06;;;22.79;62.99
45403;BME280;47427;51.976;5.326;2023-08-08T07:32:49;101358.03;;;23.04;59.99
45403;BME280;47427;51.976;5.326;2023-08-08T07:35:52;101343.00;;;23.46;59.50
45403;BME280;47427;51.976;5.326;2023-08-08T07:38:55;101341.16;;;22.43;59.89
45403;BME280;47427;51.976;5.326;2023-08-08T07:42:02;101365.47;;;23.38;56.47
45403;BME280;47427;51.976;5.326;2023-08-08T07:45:05;101356.94;;;23.64;55.44
45403;BME280;47427;51.976;5.326;2023-08-08T07:48:08;101371.22;;;24.51;53.51
45403;BME280;47427;51.976;5.326;2023-08-08T07:51:11;101395.28;;;24.92;49.55
45403;BME280;47427;51.976;5.326;2023-08-08T07:54:14;101401.47;;;24.94;49.20
45403;BME280;47427;51.976;5.326;2023-08-08T07:57:17;101384.09;;;25.10;48.68
45403;BME280;47427;51.976;5.326;2023-08-08T08:00:19;101411.25;;;25.66;47.04
45403;BME280;47427;51.976;5.326;2023-08-08T08:03:22;101392.88;;;25.85;46.81
45403;BME280;47427;51.976;5.326;2023-08-08T08:06:25;101384.88;;;25.81;48.81
45403;BME280;47427;51.976;5.326;2023-08-08T08:09:27;101417.41;;;26.04;44.55
45403;BME280;47427;51.976;5.326;2023-08-08T08:12:30;101388.34;;;24.42;48.25
45403;BME280;47427;51.976;5.326;2023-08-08T08:15:33;101347.94;;;24.52;49.36
45403;BME280;47427;51.976;5.326;2023-08-08T08:18:36;101364.25;;;23.55;49.64
45403;BME280;47427;51.976;5.326;2023-08-08T08:21:38;101344.00;;;23.39;50.25
45403;BME280;47427;51.976;5.326;2023-08-08T08:24:41;101394.59;;;25.88;45.49
45403;BME280;47427;51.976;5.326;2023-08-08T08:27:43;101384.84;;;23.52;48.48
45403;BME280;47427;51.976;5.326;2023-08-08T08:30:46;101339.53;;;22.33;52.39
45403;BME280;47427;51.976;5.326;2023-08-08T08:33:48;101364.72;;;23.77;48.80
45403;BME280;47427;51.976;5.326;2023-08-08T08:36:51;101443.06;;;26.46;42.28
45403;BME280;47427;51.976;5.326;2023-08-08T08:39:53;101501.31;;;27.06;39.45
45403;BME280;47427;51.976;5.326;2023-08-08T08:42:56;101488.06;;;28.31;38.51
45403;BME280;47427;51.976;5.326;2023-08-08T08:46:00;101508.81;;;28.04;37.86
45403;BME280;47427;51.976;5.326;2023-08-08T08:49:07;101485.66;;;25.64;39.84
45403;BME280;47427;51.976;5.326;2023-08-08T08:52:12;101458.09;;;25.22;41.64
45403;BME280;47427;51.976;5.326;2023-08-08T08:55:16;101445.09;;;24.24;43.25
45403;BME280;47427;51.976;5.326;2023-08-08T08:58:18;101468.03;;;25.18;40.82
45403;BME280;47427;51.976;5.326;2023-08-08T09:01:22;101508.16;;;28.23;36.78
45403;BME280;47427;51.976;5.326;2023-08-08T09:04:28;101494.69;;;25.62;38.94
45403;BME280;47427;51.976;5.326;2023-08-08T09:07:33;101484.56;;;27.53;37.31
45403;BME280;47427;51.976;5.326;2023-08-08T09:10:37;101451.00;;;25.19;42.00
45403;BME280;47427;51.976;5.326;2023-08-08T09:13:40;101456.97;;;26.90;39.35
45403;BME280;47427;51.976;5.326;2023-08-08T09:16:43;101518.25;;;27.66;35.64
45403;BME280;47427;51.976;5.326;2023-08-08T09:19:46;101536.66;;;29.02;35.13
45403;BME280;47427;51.976;5.326;2023-08-08T09:22:48;101517.16;;;27.17;37.43
45403;BME280;47427;51.976;5.326;2023-08-08T09:25:51;101455.03;;;24.61;41.68
45403;BME280;47427;51.976;5.326;2023-08-08T09:28:54;101423.47;;;25.09;41.90
45403;BME280;47427;51.976;5.326;2023-08-08T09:31:57;101429.94;;;26.93;39.58
45403;BME280;47427;51.976;5.326;2023-08-08T09:35:00;101541.34;;;31.95;31.59
45403;BME280;47427;51.976;5.326;2023-08-08T09:38:02;101572.97;;;31.60;31.19
45403;BME280;47427;51.976;5.326;2023-08-08T09:41:05;101557.81;;;29.14;34.07
45403;BME280;47427;51.976;5.326;2023-08-08T09:44:09;101500.28;;;26.54;37.87
45403;BME280;47427;51.976;5.326;2023-08-08T09:47:15;101474.91;;;26.31;38.56
45403;BME280;47427;51.976;5.326;2023-08-08T09:50:16;101459.53;;;28.24;37.55
45403;BME280;47427;51.976;5.326;2023-08-08T09:53:21;101505.09;;;28.08;35.16
45403;BME280;47427;51.976;5.326;2023-08-08T09:56:25;101461.66;;;26.24;38.67
45403;BME280;47427;51.976;5.326;2023-08-08T09:59:28;101451.66;;;24.53;39.60
45403;BME280;47427;51.976;5.326;2023-08-08T10:02:31;101459.44;;;26.08;37.99
45403;BME280;47427;51.976;5.326;2023-08-08T10:05:34;101499.97;;;26.93;35.62
45403;BME280;47427;51.976;5.326;2023-08-08T10:08:38;101471.34;;;24.52;40.06
45403;BME280;47427;51.976;5.326;2023-08-08T10:11:42;101415.06;;;24.87;41.32
45403;BME280;47427;51.976;5.326;2023-08-08T10:14:45;101458.22;;;26.79;37.96
45403;BME280;47427;51.976;5.326;2023-08-08T10:17:57;101459.75;;;24.90;40.13
45403;BME280;47427;51.976;5.326;2023-08-08T10:21:03;101431.06;;;24.92;40.49
45403;BME280;47427;51.976;5.326;2023-08-08T10:24:09;101455.38;;;26.84;37.88
45403;BME280;47427;51.976;5.326;2023-08-08T10:27:10;101487.19;;;27.54;36.11
45403;BME280;47427;51.976;5.326;2023-08-08T10:30:12;101496.06;;;27.84;36.25
45403;BME280;47427;51.976;5.326;2023-08-08T10:33:41;101536.47;;;28.61;33.90
45403;BME280;47427;51.976;5.326;2023-08-08T10:36:50;101507.56;;;26.49;36.74
45403;BME280;47427;51.976;5.326;2023-08-08T10:40:00;101522.44;;;30.26;32.74
45403;BME280;47427;51.976;5.326;2023-08-08T10:43:11;101600.16;;;34.51;29.34
45403;BME280;47427;51.976;5.326;2023-08-08T10:46:24;101682.00;;;36.06;25.32
45403;BME280;47427;51.976;5.326;2023-08-08T10:49:26;101699.53;;;35.19;24.72
45403;BME280;47427;51.976;5.326;2023-08-08T10:52:30;101649.47;;;30.72;29.54
45403;BME280;47427;51.976;5.326;2023-08-08T10:55:35;101569.50;;;28.68;33.02
45403;BME280;47427;51.976;5.326;2023-08-08T10:58:42;101542.81;;;27.30;34.05
45403;BME280;47427;51.976;5.326;2023-08-08T11:01:50;101507.75;;;26.11;36.56
45403;BME280;47427;51.976;5.326;2023-08-08T11:04:55;101488.00;;;26.73;36.05
45403;BME280;47427;51.976;5.326;2023-08-08T11:08:00;101508.84;;;28.99;33.98
45403;BME280;47427;51.976;5.326;2023-08-08T11:11:04;101530.81;;;29.57;33.53
45403;BME280;47427;51.976;5.326;2023-08-08T11:14:15;101519.66;;;28.77;33.30
45403;BME280;47427;51.976;5.326;2023-08-08T11:17:18;101528.94;;;28.21;33.61
45403;BME280;47427;51.976;5.326;2023-08-08T11:20:23;101526.13;;;27.99;34.46
45403;BME280;47427;51.976;5.326;2023-08-08T11:23:26;101480.09;;;27.25;36.91
45403;BME280;47427;51.976;5.326;2023-08-08T11:26:27;101494.94;;;28.15;33.74
45403;BME280;47427;51.976;5.326;2023-08-08T11:29:35;101539.25;;;29.71;31.46
45403;BME280;47427;51.976;5.326;2023-08-08T11:32:38;101545.09;;;29.38;32.39
45403;BME280;47427;51.976;5.326;2023-08-08T11:35:45;101529.69;;;28.24;33.87
45403;BME280;47427;51.976;5.326;2023-08-08T11:38:49;101489.19;;;28.01;34.84
45403;BME280;47427;51.976;5.326;2023-08-08T11:41:53;101497.72;;;28.14;35.17
45403;BME280;47427;51.976;5.326;2023-08-08T11:44:56;101508.34;;;29.97;33.05
45403;BME280;47427;51.976;5.326;2023-08-08T11:48:00;101541.34;;;29.43;31.62
45403;BME280;47427;51.976;5.326;2023-08-08T11:51:06;101499.09;;;28.72;33.69
45403;BME280;47427;51.976;5.326;2023-08-08T11:54:28;101478.47;;;27.98;35.58
45403;BME280;47427;51.976;5.326;2023-08-08T11:57:33;101475.59;;;27.77;34.82
45403;BME280;47427;51.976;5.326;2023-08-08T12:00:37;101475.63;;;26.96;36.25
45403;BME280;47427;51.976;5.326;2023-08-08T12:03:40;101444.28;;;26.65;37.35
45403;BME280;47427;51.976;5.326;2023-08-08T12:06:43;101446.59;;;27.06;36.97
45403;BME280;47427;51.976;5.326;2023-08-08T12:09:49;101446.28;;;26.58;35.93
45403;BME280;47427;51.976;5.326;2023-08-08T12:12:55;101443.06;;;26.75;37.96
45403;BME280;47427;51.976;5.326;2023-08-08T12:15:59;101447.00;;;26.64;36.88
45403;BME280;47427;51.976;5.326;2023-08-08T12:19:06;101443.75;;;27.63;35.48
45403;BME280;47427;51.976;5.326;2023-08-08T12:22:10;101519.81;;;31.19;30.17
45403;BME280;47427;51.976;5.326;2023-08-08T12:25:13;101547.75;;;30.25;31.45
45403;BME280;47427;51.976;5.326;2023-08-08T12:28:15;101532.66;;;29.34;30.88
45403;BME280;47427;51.976;5.326;2023-08-08T12:31:18;101469.81;;;26.82;36.07
45403;BME280;47427;51.976;5.326;2023-08-08T12:34:21;101457.03;;;27.95;35.46
45403;BME280;47427;51.976;5.326;2023-08-08T12:37:24;101520.00;;;31.70;30.06
45403;BME280;47427;51.976;5.326;2023-08-08T12:40:26;101569.59;;;32.26;28.62
45403;BME280;47427;51.976;5.326;2023-08-08T12:43:29;101543.81;;;28.56;33.04
45403;BME280;47427;51.976;5.326;2023-08-08T12:46:31;101484.66;;;27.50;35.03
45403;BME280;47427;51.976;5.326;2023-08-08T12:49:35;101454.66;;;27.06;36.62
45403;BME280;47427;51.976;5.326;2023-08-08T12:52:37;101438.91;;;27.21;36.04
45403;BME280;47427;51.976;5.326;2023-08-08T12:55:40;101439.09;;;27.42;35.90
45403;BME280;47427;51.976;5.326;2023-08-08T12:58:43;101427.91;;;26.13;37.50
45403;BME280;47427;51.976;5.326;2023-08-08T13:01:46;101392.41;;;24.99;41.08
45403;BME280;47427;51.976;5.326;2023-08-08T13:04:48;101365.59;;;24.21;41.82
45403;BME280;47427;51.976;5.326;2023-08-08T13:07:51;101423.41;;;28.52;35.40
45403;BME280;47427;51.976;5.326;2023-08-08T13:10:53;101487.50;;;28.92;33.64
45403;BME280;47427;51.976;5.326;2023-08-08T13:13:56;101460.63;;;27.15;35.75
45403;BME280;47427;51.976;5.326;2023-08-08T13:16:59;101459.94;;;26.51;37.04
45403;BME280;47427;51.976;5.326;2023-08-08T13:20:03;101416.53;;;26.63;37.53
45403;BME280;47427;51.976;5.326;2023-08-08T13:23:09;101481.72;;;28.80;33.72
45403;BME280;47427;51.976;5.326;2023-08-08T13:26:12;101482.78;;;28.28;34.33
45403;BME280;47427;51.976;5.326;2023-08-08T13:29:15;101434.06;;;27.58;36.36
45403;BME280;47427;51.976;5.326;2023-08-08T13:32:18;101435.03;;;27.30;37.02
45403;BME280;47427;51.976;5.326;2023-08-08T13:35:20;101395.75;;;25.45;40.61
45403;BME280;47427;51.976;5.326;2023-08-08T13:38:23;101377.34;;;24.16;43.16
45403;BME280;47427;51.976;5.326;2023-08-08T13:41:26;101340.00;;;23.62;44.35
45403;BME280;47427;51.976;5.326;2023-08-08T13:44:28;101333.22;;;23.44;44.96
45403;BME280;47427;51.976;5.326;2023-08-08T13:47:31;101333.72;;;23.16;45.31
45403;BME280;47427;51.976;5.326;2023-08-08T13:50:34;101327.91;;;22.91;46.52
45403;BME280;47427;51.976;5.326;2023-08-08T13:53:36;101316.13;;;23.51;45.98
45403;BME280;47427;51.976;5.326;2023-08-08T13:56:38;101328.91;;;24.22;44.53
45403;BME280;47427;51.976;5.326;2023-08-08T13:59:41;101344.31;;;24.14;43.80
45403;BME280;47427;51.976;5.326;2023-08-08T14:02:44;101357.97;;;24.42;43.41
45403;BME280;47427;51.976;5.326;2023-08-08T14:05:46;101362.06;;;24.19;43.37
45403;BME280;47427;51.976;5.326;2023-08-08T14:08:48;101345.72;;;23.43;43.59
45403;BME280;47427;51.976;5.326;2023-08-08T14:11:51;101339.13;;;23.61;44.11
45403;BME280;47427;51.976;5.326;2023-08-08T14:14:54;101336.78;;;24.30;43.95
45403;BME280;47427;51.976;5.326;2023-08-08T14:17:56;101375.91;;;25.49;40.59
45403;BME280;47427;51.976;5.326;2023-08-08T14:20:58;101414.19;;;26.52;37.66
45403;BME280;47427;51.976;5.326;2023-08-08T14:24:01;101436.44;;;27.14;36.97
45403;BME280;47427;51.976;5.326;2023-08-08T14:27:06;101439.47;;;27.58;36.91
45403;BME280;47427;51.976;5.326;2023-08-08T14:30:10;101410.22;;;26.34;39.98
45403;BME280;47427;51.976;5.326;2023-08-08T14:33:14;101391.66;;;26.25;39.13
45403;BME280;47427;51.976;5.326;2023-08-08T14:36:17;101406.19;;;26.20;38.40
45403;BME280;47427;51.976;5.326;2023-08-08T14:39:20;101390.84;;;25.92;39.40
45403;BME280;47427;51.976;5.326;2023-08-08T14:42:23;101378.16;;;25.64;41.21
45403;BME280;47427;51.976;5.326;2023-08-08T14:45:25;101380.84;;;25.64;39.41
45403;BME280;47427;51.976;5.326;2023-08-08T14:48:27;101395.38;;;25.57;39.39
45403;BME280;47427;51.976;5.326;2023-08-08T14:51:48;101370.50;;;24.41;41.97
45403;BME280;47427;51.976;5.326;2023-08-08T14:54:50;101346.38;;;23.54;44.36
45403;BME280;47427;51.976;5.326;2023-08-08T14:57:51;101322.75;;;23.31;45.88
45403;BME280;47427;51.976;5.326;2023-08-08T15:00:54;101312.72;;;23.41;46.46
45403;BME280;47427;51.976;5.326;2023-08-08T15:03:57;101301.72;;;23.56;46.39
45403;BME280;47427;51.976;5.326;2023-08-08T15:07:00;101326.59;;;23.63;45.96
45403;BME280;47427;51.976;5.326;2023-08-08T15:10:03;101315.97;;;23.58;46.04
45403;BME280;47427;51.976;5.326;2023-08-08T15:13:06;101336.69;;;23.95;44.07
45403;BME280;47427;51.976;5.326;2023-08-08T15:16:09;101348.88;;;24.09;43.80
45403;BME280;47427;51.976;5.326;2023-08-08T15:19:12;101348.75;;;23.70;44.33
45403;BME280;47427;51.976;5.326;2023-08-08T15:22:15;101327.91;;;23.87;45.08
45403;BME280;47427;51.976;5.326;2023-08-08T15:25:17;101353.88;;;25.02;42.27
45403;BME280;47427;51.976;5.326;2023-08-08T15:28:20;101385.88;;;25.77;41.24
45403;BME280;47427;51.976;5.326;2023-08-08T15:31:23;101372.25;;;24.42;42.85
45403;BME280;47427;51.976;5.326;2023-08-08T15:34:25;101347.38;;;23.50;45.19
45403;BME280;47427;51.976;5.326;2023-08-08T15:37:27;101345.03;;;23.32;46.75
45403;BME280;47427;51.976;5.326;2023-08-08T15:40:30;101330.44;;;23.50;46.00
45403;BME280;47427;51.976;5.326;2023-08-08T15:43:33;101344.91;;;25.01;43.36
45403;BME280;47427;51.976;5.326;2023-08-08T15:46:35;101365.69;;;24.95;42.49
45403;BME280;47427;51.976;5.326;2023-08-08T15:49:37;101346.44;;;24.76;43.95
45403;BME280;47427;51.976;5.326;2023-08-08T15:52:40;101349.97;;;24.78;44.25
45403;BME280;47427;51.976;5.326;2023-08-08T15:55:43;101324.69;;;23.23;47.11